ΕΜΥ, Εθνική Μετεωρολογική Υπηρεσία - Δελτία Καιρού, Προγνώσεις

ΑΕΡΟΝΑΥΤΙΛΙΑ

GREEK AIRPORTS CODES

LGKP 300820Z 31015KT 9999 SCT018 23/16 Q1017=

EUROPEAN AIRPORTS CODES

EPWA 300830Z 27011KT 9999 BKN015 09/07 Q1017 NOSIG=